createdAt,value
2018-03-04T00:01:09.309Z,-1.87
2018-03-04T00:03:39.021Z,-1.76
2018-03-04T00:06:08.686Z,-1.88
2018-03-04T00:08:38.508Z,-1.91
2018-03-04T00:11:08.221Z,-1.88
2018-03-04T00:13:38.856Z,-1.75
2018-03-04T00:16:08.902Z,-1.82
2018-03-04T00:18:38.378Z,-1.74
2018-03-04T00:21:08.037Z,-1.74
2018-03-04T00:23:37.900Z,-1.69
2018-03-04T00:26:08.544Z,-1.80
2018-03-04T00:28:38.566Z,-1.60
2018-03-04T00:31:09.200Z,-1.56
2018-03-04T00:33:38.833Z,-1.55
2018-03-04T00:36:08.815Z,-1.52
2018-03-04T00:38:39.954Z,-1.59
2018-03-04T00:41:09.603Z,-1.49
2018-03-04T00:43:39.444Z,-1.58
2018-03-04T00:46:09.914Z,-1.67
2018-03-04T00:48:39.451Z,-1.57
2018-03-04T00:51:09.402Z,-1.61
2018-03-04T00:53:39.530Z,-1.70
2018-03-04T00:56:10.249Z,-1.92
2018-03-04T00:58:41.740Z,-1.80
2018-03-04T01:01:12.176Z,-1.90
2018-03-04T01:03:42.208Z,-1.97
2018-03-04T01:06:12.257Z,-2.08
2018-03-04T01:08:42.946Z,-2.15
2018-03-04T01:11:13.543Z,-2.30
2018-03-04T01:13:44.470Z,-2.30
2018-03-04T01:16:15.144Z,-2.29
2018-03-04T01:18:44.847Z,-2.35
2018-03-04T01:21:15.754Z,-2.41
2018-03-04T01:23:46.853Z,-2.44
2018-03-04T01:26:17.405Z,-2.37
2018-03-04T01:28:47.078Z,-2.41
2018-03-04T01:31:17.194Z,-2.37
2018-03-04T01:33:47.950Z,-2.43
2018-03-04T01:36:18.345Z,-2.42
2018-03-04T01:38:48.817Z,-2.46
2018-03-04T01:41:18.807Z,-2.50
2018-03-04T01:43:50.440Z,-2.54
2018-03-04T01:46:20.906Z,-2.58
2018-03-04T01:48:50.876Z,-2.62
2018-03-04T01:51:20.829Z,-2.68
2018-03-04T01:53:50.653Z,-2.58
2018-03-04T01:56:20.396Z,-2.73
2018-03-04T01:58:50.777Z,-2.53
2018-03-04T02:01:21.793Z,-2.43
2018-03-04T02:03:51.629Z,-2.40
2018-03-04T02:06:21.720Z,-2.44
2018-03-04T02:08:52.458Z,-2.30
2018-03-04T02:11:22.093Z,-2.29
2018-03-04T02:13:52.932Z,-2.27
2018-03-04T02:16:23.023Z,-2.36
2018-03-04T02:18:52.839Z,-2.19
2018-03-04T02:21:22.806Z,-2.29
2018-03-04T02:23:52.780Z,-1.95
2018-03-04T02:26:22.437Z,-2.10
2018-03-04T02:28:53.381Z,-1.93
2018-03-04T02:31:23.342Z,-1.93
2018-03-04T02:33:53.028Z,-1.76
2018-03-04T02:36:23.147Z,-1.87
2018-03-04T02:38:53.185Z,-1.75
2018-03-04T02:41:23.017Z,-1.70
2018-03-04T02:43:53.090Z,-2.00
2018-03-04T02:46:23.869Z,-2.02
2018-03-04T02:48:54.134Z,-1.74
2018-03-04T02:51:24.442Z,-1.81
2018-03-04T02:53:54.680Z,-1.84
2018-03-04T02:56:24.417Z,-1.74
2018-03-04T02:58:54.813Z,-1.68
2018-03-04T03:01:24.577Z,-1.82
2018-03-04T03:03:54.368Z,-1.64
2018-03-04T03:06:24.507Z,-1.70
2018-03-04T03:08:54.514Z,-1.76
2018-03-04T03:11:25.643Z,-1.65
2018-03-04T03:13:55.637Z,-1.81
2018-03-04T03:16:25.592Z,-1.76
2018-03-04T03:18:55.238Z,-1.88
2018-03-04T03:21:25.552Z,-1.53
2018-03-04T03:23:55.094Z,-1.50
2018-03-04T03:26:25.029Z,-1.56
2018-03-04T03:28:55.634Z,-1.26
2018-03-04T03:31:25.598Z,-1.25
2018-03-04T03:33:55.422Z,-1.46
2018-03-04T03:36:25.591Z,-1.28
2018-03-04T03:38:55.447Z,-1.34
2018-03-04T03:41:25.448Z,-1.31
2018-03-04T03:43:55.585Z,-1.25
2018-03-04T03:46:25.573Z,-1.49
2018-03-04T03:48:56.423Z,-1.45
2018-03-04T03:51:26.734Z,-1.43
2018-03-04T03:53:56.642Z,-1.61
2018-03-04T03:56:26.388Z,-1.73
2018-03-04T03:58:56.948Z,-1.64
2018-03-04T04:01:26.476Z,-1.42
2018-03-04T04:03:56.451Z,-1.25
2018-03-04T04:06:26.405Z,-1.29
2018-03-04T04:08:56.261Z,-1.34
2018-03-04T04:11:26.126Z,-1.79
2018-03-04T04:13:57.757Z,-1.58
2018-03-04T04:16:28.060Z,-1.53
2018-03-04T04:18:58.351Z,-1.54
2018-03-04T04:21:29.459Z,-1.24
2018-03-04T04:23:59.185Z,-1.08
2018-03-04T04:26:29.842Z,-1.01
2018-03-04T04:29:03.098Z,-0.95
2018-03-04T04:31:33.555Z,-0.87
2018-03-04T04:34:04.053Z,-0.89
2018-03-04T04:36:34.545Z,-0.95
2018-03-04T04:39:06.453Z,-0.88
2018-03-04T04:41:36.389Z,-0.95
2018-03-04T04:44:06.156Z,-1.15
2018-03-04T04:46:36.859Z,-1.15
2018-03-04T04:49:06.772Z,-1.11
2018-03-04T04:51:36.679Z,-0.98
2018-03-04T04:54:06.563Z,-0.96
2018-03-04T04:56:36.886Z,-0.99
2018-03-04T04:59:07.156Z,-1.03
2018-03-04T05:01:37.316Z,-0.85
2018-03-04T05:04:06.905Z,-0.73
2018-03-04T05:06:36.939Z,-0.80
2018-03-04T05:09:07.147Z,-0.83
2018-03-04T05:11:36.982Z,-0.93
2018-03-04T05:14:09.647Z,-0.94
2018-03-04T05:16:39.861Z,-1.14
2018-03-04T05:19:10.691Z,-1.20
2018-03-04T05:21:40.811Z,-1.14
2018-03-04T05:24:11.566Z,-0.97
2018-03-04T05:26:42.685Z,-1.09
2018-03-04T05:29:12.685Z,-1.14
2018-03-04T05:31:43.086Z,-1.42
2018-03-04T05:34:12.981Z,-1.22
2018-03-04T05:36:43.530Z,-1.43
2018-03-04T05:39:13.689Z,-1.34
2018-03-04T05:41:44.597Z,-1.45
2018-03-04T05:44:14.314Z,-1.04
2018-03-04T05:46:44.337Z,-1.16
2018-03-04T05:49:13.975Z,-0.89
2018-03-04T05:51:44.524Z,-0.95
2018-03-04T05:54:14.480Z,-1.05
2018-03-04T05:56:44.280Z,-1.28
2018-03-04T05:59:15.659Z,-1.15
2018-03-04T06:01:45.500Z,-1.18
2018-03-04T06:04:15.229Z,-1.42
2018-03-04T06:06:45.337Z,-1.54
2018-03-04T06:09:15.381Z,-1.44
2018-03-04T06:11:45.345Z,-1.42
2018-03-04T06:14:15.258Z,-1.48
2018-03-04T06:16:48.703Z,-1.53
2018-03-04T06:19:18.905Z,-1.31
2018-03-04T06:21:49.409Z,-0.98
2018-03-04T06:24:20.551Z,-0.88
2018-03-04T06:26:52.214Z,-0.72
2018-03-04T06:29:22.207Z,-0.85
2018-03-04T06:31:52.119Z,-0.52
2018-03-04T06:34:22.544Z,-0.43
2018-03-04T06:36:53.152Z,-0.10
2018-03-04T06:39:23.254Z,-0.07
2018-03-04T06:41:54.006Z,-0.53
2018-03-04T06:44:23.625Z,-0.69
2018-03-04T06:46:54.595Z,-0.49
2018-03-04T06:49:24.380Z,-0.42
2018-03-04T06:51:55.521Z,-0.39
2018-03-04T06:54:25.738Z,-0.45
2018-03-04T06:56:56.350Z,-0.19
2018-03-04T06:59:26.836Z,-0.46
2018-03-04T07:01:56.797Z,-0.45
2018-03-04T07:04:26.807Z,-0.08
2018-03-04T07:06:57.599Z,-0.29
2018-03-04T07:09:27.735Z,-0.60
2018-03-04T07:11:59.014Z,-0.31
2018-03-04T07:14:30.531Z,-0.18
2018-03-04T07:17:03.580Z,-0.22
2018-03-04T07:19:33.738Z,-0.20
2018-03-04T07:22:06.290Z,0.10
2018-03-04T07:24:37.730Z,0.42
2018-03-04T07:27:07.196Z,0.35
2018-03-04T07:29:36.687Z,0.61
2018-03-04T07:32:07.483Z,0.74
2018-03-04T07:34:37.831Z,0.75
2018-03-04T07:37:08.384Z,0.78
2018-03-04T07:39:40.653Z,0.38
2018-03-04T07:42:10.661Z,0.37
2018-03-04T07:44:40.761Z,0.20
2018-03-04T07:47:10.812Z,0.00
2018-03-04T07:49:40.543Z,0.12
2018-03-04T07:52:10.031Z,0.30
2018-03-04T07:54:42.227Z,0.51
2018-03-04T07:57:12.558Z,0.52
2018-03-04T07:59:42.011Z,0.30
2018-03-04T08:02:12.893Z,0.38
2018-03-04T08:04:43.127Z,0.76
2018-03-04T08:07:12.788Z,0.85
2018-03-04T08:09:42.721Z,0.79
2018-03-04T08:12:12.533Z,0.98
2018-03-04T08:14:43.577Z,1.06
2018-03-04T08:17:14.142Z,0.89
2018-03-04T08:19:44.923Z,1.08
2018-03-04T08:22:14.469Z,1.14
2018-03-04T08:24:53.328Z,1.33
2018-03-04T08:29:32.920Z,1.27
2018-03-04T08:32:05.437Z,1.48
2018-03-04T08:34:36.464Z,1.73
2018-03-04T08:37:06.567Z,1.99
2018-03-04T08:39:37.307Z,1.65
2018-03-04T08:42:08.217Z,1.62
2018-03-04T08:44:38.295Z,2.07
2018-03-04T08:47:12.243Z,2.68
2018-03-04T08:49:42.622Z,2.55
2018-03-04T08:52:14.725Z,2.79
2018-03-04T08:54:44.531Z,2.50
2018-03-04T08:57:14.799Z,2.81
2018-03-04T08:59:45.420Z,3.17
2018-03-04T09:02:14.895Z,3.04
2018-03-04T09:04:45.695Z,3.25
2018-03-04T09:07:17.938Z,3.03
2018-03-04T09:09:47.412Z,3.71
2018-03-04T09:12:17.760Z,4.06
2018-03-04T09:14:47.661Z,4.33
2018-03-04T09:17:20.427Z,4.51
2018-03-04T09:19:51.471Z,3.99
2018-03-04T09:22:22.220Z,4.15
2018-03-04T09:24:52.007Z,4.66
2018-03-04T09:27:22.231Z,4.95
2018-03-04T09:29:52.482Z,5.25
2018-03-04T09:32:22.077Z,5.14
2018-03-04T09:34:52.416Z,4.65
2018-03-04T09:37:21.941Z,4.70
2018-03-04T09:39:51.628Z,4.54
2018-03-04T09:42:21.551Z,4.47
2018-03-04T09:44:51.679Z,5.11
2018-03-04T09:47:21.228Z,5.51
2018-03-04T09:49:51.572Z,5.33
2018-03-04T09:52:21.214Z,5.77
2018-03-04T09:54:51.002Z,5.47
2018-03-04T09:57:20.870Z,5.27
2018-03-04T09:59:50.320Z,5.17
2018-03-04T10:02:19.870Z,4.94
2018-03-04T10:04:49.684Z,5.34
2018-03-04T10:07:19.290Z,5.37
2018-03-04T10:09:48.797Z,5.49
2018-03-04T10:12:19.013Z,5.74
2018-03-04T10:14:49.330Z,5.65
2018-03-04T10:17:19.466Z,5.67
2018-03-04T10:19:49.516Z,5.97
2018-03-04T10:22:19.605Z,6.10
2018-03-04T10:24:49.673Z,5.92
2018-03-04T10:27:19.643Z,5.95
2018-03-04T10:29:49.665Z,6.06
2018-03-04T10:32:19.372Z,5.87
2018-03-04T10:34:50.304Z,6.01
2018-03-04T10:37:19.838Z,6.22
2018-03-04T10:39:50.054Z,6.26
2018-03-04T10:42:19.940Z,6.40
2018-03-04T10:44:50.942Z,6.53
2018-03-04T10:47:20.836Z,6.61
2018-03-04T10:49:51.986Z,6.64
2018-03-04T10:52:22.343Z,6.30
2018-03-04T10:54:52.691Z,6.50
2018-03-04T10:57:22.515Z,6.70
2018-03-04T10:59:54.053Z,6.76
2018-03-04T11:02:23.914Z,7.06
2018-03-04T11:04:53.520Z,7.04
2018-03-04T11:07:24.093Z,6.88
2018-03-04T11:09:54.343Z,6.93
2018-03-04T11:12:24.025Z,6.82
2018-03-04T11:14:53.725Z,6.96
2018-03-04T11:17:23.231Z,7.11
2018-03-04T11:19:52.632Z,7.58
2018-03-04T11:22:23.521Z,7.84
2018-03-04T11:24:53.316Z,8.25
2018-03-04T11:27:23.273Z,7.78
2018-03-04T11:29:53.090Z,8.06
2018-03-04T11:32:23.467Z,7.93
2018-03-04T11:34:53.316Z,8.58
2018-03-04T11:37:23.527Z,8.21
2018-03-04T11:39:55.432Z,8.46
2018-03-04T11:42:25.886Z,9.05
2018-03-04T11:44:55.680Z,8.77
2018-03-04T11:47:25.895Z,8.74
2018-03-04T11:49:55.512Z,8.60
2018-03-04T11:52:25.350Z,8.63
2018-03-04T11:54:54.812Z,9.10
2018-03-04T11:57:24.408Z,9.52
2018-03-04T11:59:53.869Z,9.09
2018-03-04T12:02:23.400Z,8.95
2018-03-04T12:04:53.134Z,8.79
2018-03-04T12:07:22.868Z,8.83
2018-03-04T12:09:52.324Z,8.65
2018-03-04T12:12:21.764Z,8.65
2018-03-04T12:14:52.561Z,8.59
2018-03-04T12:17:22.437Z,8.53
2018-03-04T12:19:52.494Z,8.99
2018-03-04T12:22:22.169Z,8.76
2018-03-04T12:24:52.565Z,8.66
2018-03-04T12:27:22.228Z,8.24
2018-03-04T12:29:51.673Z,8.35
2018-03-04T12:32:21.329Z,8.62
2018-03-04T12:34:51.706Z,8.77
2018-03-04T12:37:21.258Z,8.54
2018-03-04T12:39:51.458Z,8.63
2018-03-04T12:42:20.937Z,8.67
2018-03-04T12:44:50.709Z,8.55
2018-03-04T12:47:20.191Z,8.81
2018-03-04T12:49:50.723Z,8.97
2018-03-04T12:52:21.545Z,9.36
2018-03-04T12:54:51.187Z,9.55
2018-03-04T12:57:22.255Z,9.65
2018-03-04T12:59:52.494Z,9.74
2018-03-04T13:02:22.498Z,9.95
2018-03-04T13:04:52.973Z,10.38
2018-03-04T13:07:22.969Z,10.82
2018-03-04T13:09:53.395Z,10.97
2018-03-04T13:12:25.722Z,10.40
2018-03-04T13:14:56.072Z,10.96
2018-03-04T13:17:26.726Z,11.36
2018-03-04T13:19:56.311Z,11.48
2018-03-04T13:22:26.467Z,11.30
2018-03-04T13:24:56.314Z,11.24
2018-03-04T13:27:26.439Z,11.21
2018-03-04T13:29:56.212Z,11.17
2018-03-04T13:32:25.819Z,11.15
2018-03-04T13:34:55.904Z,11.43
2018-03-04T13:37:25.542Z,11.49
2018-03-04T13:39:54.979Z,11.66
2018-03-04T13:42:24.620Z,11.45
2018-03-04T13:44:54.631Z,11.62
2018-03-04T13:47:24.217Z,11.98
2018-03-04T13:49:53.813Z,12.16
2018-03-04T13:52:23.329Z,11.76
2018-03-04T13:54:52.826Z,11.55
2018-03-04T13:57:22.236Z,11.56
2018-03-04T13:59:51.971Z,11.67
2018-03-04T14:02:21.400Z,11.74
2018-03-04T14:04:51.159Z,11.46
2018-03-04T14:07:21.090Z,11.24
2018-03-04T14:09:50.576Z,11.62
2018-03-04T14:12:20.200Z,11.86
2018-03-04T14:14:49.776Z,11.79
2018-03-04T14:17:19.965Z,11.56
2018-03-04T14:19:49.826Z,11.95
2018-03-04T14:22:19.562Z,12.27
2018-03-04T14:24:49.484Z,12.34
2018-03-04T14:27:19.365Z,12.54
2018-03-04T14:29:49.286Z,12.43
2018-03-04T14:32:18.871Z,12.36
2018-03-04T14:34:49.350Z,12.65
2018-03-04T14:37:19.213Z,12.88
2018-03-04T14:39:49.135Z,13.12
2018-03-04T14:42:18.905Z,12.62
2018-03-04T14:44:48.412Z,12.74
2018-03-04T14:47:18.317Z,12.89
2018-03-04T14:49:47.716Z,13.05
2018-03-04T14:52:17.156Z,12.85
2018-03-04T14:54:48.001Z,12.85
2018-03-04T14:57:17.476Z,12.78
2018-03-04T14:59:47.646Z,13.21
2018-03-04T15:02:17.505Z,12.89
2018-03-04T15:04:48.027Z,13.39
2018-03-04T15:07:17.720Z,13.45
2018-03-04T15:09:47.629Z,13.49
2018-03-04T15:12:17.121Z,13.86
2018-03-04T15:14:46.785Z,13.68
2018-03-04T15:17:17.224Z,13.25
2018-03-04T15:19:47.280Z,12.63
2018-03-04T15:22:17.796Z,12.57
2018-03-04T15:24:48.269Z,12.47
2018-03-04T15:27:18.141Z,12.46
2018-03-04T15:29:47.809Z,12.38
2018-03-04T15:32:17.691Z,12.20
2018-03-04T15:34:48.218Z,12.09
2018-03-04T15:37:18.867Z,11.83
2018-03-04T15:39:48.900Z,11.80
2018-03-04T15:43:21.780Z,11.42
2018-03-04T15:45:52.440Z,11.34
2018-03-04T15:48:22.080Z,11.16
2018-03-04T15:50:52.867Z,10.89
2018-03-04T15:53:22.663Z,10.49
2018-03-04T15:55:52.267Z,10.32
2018-03-04T15:58:21.860Z,10.12
2018-03-04T16:00:52.849Z,9.99
2018-03-04T16:03:22.378Z,9.69
2018-03-04T16:05:51.948Z,9.68
2018-03-04T16:08:23.568Z,9.60
2018-03-04T16:10:54.130Z,9.34
2018-03-04T16:13:28.996Z,9.21
2018-03-04T16:15:59.254Z,9.22
2018-03-04T16:18:28.995Z,9.05
2018-03-04T16:20:58.542Z,9.19
2018-03-04T16:23:28.535Z,9.27
2018-03-04T16:25:58.045Z,9.33
2018-03-04T16:28:30.811Z,9.24
2018-03-04T16:31:01.293Z,9.35
2018-03-04T16:33:30.879Z,9.40
2018-03-04T16:36:00.383Z,9.37
2018-03-04T16:38:30.009Z,9.37
2018-03-04T16:41:00.152Z,9.31
2018-03-04T16:43:29.681Z,9.23
2018-03-04T16:46:00.550Z,9.11
2018-03-04T16:48:30.225Z,8.95
2018-03-04T16:51:00.241Z,8.82
2018-03-04T16:53:29.788Z,8.66
2018-03-04T16:55:59.243Z,8.56
2018-03-04T16:58:28.806Z,8.33
2018-03-04T17:00:59.758Z,8.16
2018-03-04T17:03:29.249Z,7.99
2018-03-04T17:05:58.705Z,7.82
2018-03-04T17:08:29.290Z,7.62
2018-03-04T17:10:59.785Z,7.42
2018-03-04T17:13:29.259Z,7.25
2018-03-04T17:16:00.280Z,7.10
2018-03-04T17:18:29.713Z,6.95
2018-03-04T17:20:59.444Z,6.75
2018-03-04T17:23:28.929Z,6.64
2018-03-04T17:25:59.037Z,6.53
2018-03-04T17:28:28.464Z,6.46
2018-03-04T17:30:58.353Z,6.38
2018-03-04T17:33:27.874Z,6.39
2018-03-04T17:35:57.337Z,6.40
2018-03-04T17:38:26.804Z,6.36
2018-03-04T17:40:56.408Z,6.32
2018-03-04T17:43:26.137Z,6.16
2018-03-04T17:45:55.876Z,6.28
2018-03-04T17:48:25.439Z,6.19
2018-03-04T17:50:54.893Z,6.19
2018-03-04T17:53:24.771Z,5.94
2018-03-04T17:55:54.213Z,6.08
2018-03-04T17:58:24.309Z,6.03
2018-03-04T18:00:54.191Z,6.01
2018-03-04T18:03:23.780Z,6.04
2018-03-04T18:05:53.353Z,6.02
2018-03-04T18:08:23.204Z,6.01
2018-03-04T18:10:52.621Z,6.10
2018-03-04T18:13:22.326Z,6.06
2018-03-04T18:15:52.192Z,6.03
2018-03-04T18:18:21.774Z,5.98
2018-03-04T18:20:51.290Z,5.97
2018-03-04T18:23:21.401Z,5.89
2018-03-04T18:25:51.017Z,6.02
2018-03-04T18:28:20.902Z,6.12
2018-03-04T18:30:50.742Z,6.07
2018-03-04T18:33:21.266Z,6.05
2018-03-04T18:35:50.773Z,6.00
2018-03-04T18:38:20.691Z,5.98
2018-03-04T18:40:50.232Z,5.85
2018-03-04T18:43:19.921Z,5.82
2018-03-04T18:45:49.868Z,5.71
2018-03-04T18:48:19.360Z,5.68
2018-03-04T18:50:49.626Z,5.67
2018-03-04T18:53:19.849Z,5.63
2018-03-04T18:55:50.761Z,5.60
2018-03-04T18:58:20.257Z,5.59
2018-03-04T19:00:50.691Z,5.60
2018-03-04T19:03:20.998Z,5.54
2018-03-04T19:05:50.992Z,5.57
2018-03-04T19:08:21.095Z,5.56
2018-03-04T19:10:50.821Z,5.49
2018-03-04T19:13:20.860Z,5.47
2018-03-04T19:15:51.761Z,5.56
2018-03-04T19:18:21.394Z,5.58
2018-03-04T19:20:51.286Z,5.57
2018-03-04T19:23:21.240Z,5.53
2018-03-04T19:25:50.921Z,5.54
2018-03-04T19:28:21.372Z,5.65
2018-03-04T19:30:53.919Z,5.74
2018-03-04T19:33:23.459Z,5.71
2018-03-04T19:35:52.917Z,5.73
2018-03-04T19:38:22.808Z,5.82
2018-03-04T19:40:52.953Z,5.77
2018-03-04T19:43:22.676Z,5.71
2018-03-04T19:45:52.841Z,5.80
2018-03-04T19:48:22.395Z,5.84
2018-03-04T19:50:52.115Z,5.83
2018-03-04T19:53:22.025Z,5.83
2018-03-04T19:55:51.474Z,5.80
2018-03-04T19:58:21.412Z,5.85
2018-03-04T20:00:51.444Z,5.86
2018-03-04T20:03:21.574Z,6.02
2018-03-04T20:05:51.225Z,6.05
2018-03-04T20:08:21.258Z,6.11
2018-03-04T20:10:51.076Z,6.02
2018-03-04T20:13:21.595Z,5.98
2018-03-04T20:15:51.358Z,6.05
2018-03-04T20:18:21.548Z,5.98
2018-03-04T20:20:52.259Z,6.04
2018-03-04T20:23:22.718Z,6.17
2018-03-04T20:25:53.032Z,6.20
2018-03-04T20:28:22.946Z,6.19
2018-03-04T20:30:53.473Z,6.15
2018-03-04T20:33:23.632Z,6.03
2018-03-04T20:35:53.151Z,5.92
2018-03-04T20:38:22.958Z,5.88
2018-03-04T20:40:53.151Z,5.78
2018-03-04T20:43:23.134Z,5.80
2018-03-04T20:45:53.372Z,5.80
2018-03-04T20:48:23.064Z,5.86
2018-03-04T20:50:54.741Z,5.83
2018-03-04T20:53:24.938Z,5.79
2018-03-04T20:55:54.787Z,5.75
2018-03-04T20:58:24.237Z,5.75
2018-03-04T21:00:54.291Z,5.71
2018-03-04T21:03:24.084Z,5.69
2018-03-04T21:05:53.984Z,5.70
2018-03-04T21:08:23.749Z,5.64
2018-03-04T21:10:53.284Z,5.62
2018-03-04T21:13:23.195Z,5.59
2018-03-04T21:15:52.654Z,5.51
2018-03-04T21:18:22.188Z,5.51
2018-03-04T21:20:52.482Z,5.40
2018-03-04T21:23:23.075Z,5.50
2018-03-04T21:25:53.432Z,5.55
2018-03-04T21:28:23.791Z,5.52
2018-03-04T21:30:53.614Z,5.52
2018-03-04T21:33:23.070Z,5.57
2018-03-04T21:35:52.937Z,5.62
2018-03-04T21:38:22.768Z,5.74
2018-03-04T21:40:52.658Z,5.80
2018-03-04T21:43:22.655Z,5.79
2018-03-04T21:45:52.536Z,5.71
2018-03-04T21:48:22.647Z,5.63
2018-03-04T21:50:52.368Z,5.88
2018-03-04T21:53:21.888Z,5.87
2018-03-04T21:55:51.330Z,5.94
2018-03-04T21:58:20.802Z,5.99
2018-03-04T22:00:51.469Z,6.15
2018-03-04T22:03:21.758Z,6.29
2018-03-04T22:05:51.350Z,6.30
2018-03-04T22:08:22.110Z,6.36
2018-03-04T22:10:52.454Z,6.32
2018-03-04T22:13:21.911Z,6.25
2018-03-04T22:15:51.970Z,6.27
2018-03-04T22:18:21.978Z,6.40
2018-03-04T22:20:51.448Z,6.42
2018-03-04T22:23:21.202Z,6.46
2018-03-04T22:25:50.710Z,6.45
2018-03-04T22:28:20.825Z,6.56
2018-03-04T22:30:50.538Z,6.47
2018-03-04T22:33:20.348Z,6.50
2018-03-04T22:35:49.772Z,6.48
2018-03-04T22:38:19.766Z,6.51
2018-03-04T22:40:50.170Z,6.70
2018-03-04T22:43:19.835Z,6.71
2018-03-04T22:45:49.641Z,6.78
2018-03-04T22:48:20.022Z,6.78
2018-03-04T22:50:49.510Z,6.95
2018-03-04T22:53:20.487Z,7.01
2018-03-04T22:55:49.932Z,6.95
2018-03-04T22:58:19.384Z,7.03
2018-03-04T23:00:50.459Z,7.06
2018-03-04T23:03:20.768Z,7.10
2018-03-04T23:05:51.497Z,7.08
2018-03-04T23:08:20.953Z,7.04
2018-03-04T23:10:51.060Z,7.14
2018-03-04T23:13:22.099Z,7.18
2018-03-04T23:15:53.534Z,7.16
2018-03-04T23:18:23.630Z,7.16
2018-03-04T23:20:54.529Z,7.10
2018-03-04T23:23:24.592Z,7.24
2018-03-04T23:25:55.425Z,7.32
2018-03-04T23:28:25.228Z,7.21
2018-03-04T23:30:56.716Z,7.14
2018-03-04T23:33:26.496Z,7.07
2018-03-04T23:35:56.281Z,7.10
2018-03-04T23:38:25.934Z,7.12
2018-03-04T23:40:55.621Z,7.09
2018-03-04T23:43:25.577Z,7.19
2018-03-04T23:45:55.802Z,7.32
2018-03-04T23:48:25.426Z,7.38
2018-03-04T23:50:54.959Z,7.54
2018-03-04T23:53:24.467Z,7.63
2018-03-04T23:55:55.036Z,7.71
2018-03-04T23:58:24.841Z,7.72
